Time;durP1;ratioP1;P1;durP2;ratioP2;P2;SDS_P1;SDS_P2;PMS_P1;PMS_P2;Temp;Humidity;BMP_temperature;BMP_pressure;BME280_temperature;BME280_humidity;BME280_pressure;Samples;Min_cycle;Max_cycle;Signal;HPM_P1;HPM_P2
2023/08/04 00:00:07;;;;;;;8.63;6.30;;;;;;;15.83;100.00;99521.09;5075400;28;20336;-76
2023/08/04 00:02:33;;;;;;;15.33;6.87;;;;;;;15.85;100.00;99524.50;5075467;28;20289;-75
2023/08/04 00:05:02;;;;;;;7.27;5.40;;;;;;;15.93;100.00;99521.44;5075158;28;20235;-74
2023/08/04 00:07:28;;;;;;;7.27;5.80;;;;;;;15.87;100.00;99533.16;5075155;28;20303;-75
2023/08/04 00:09:55;;;;;;;8.37;6.30;;;;;;;15.91;100.00;99533.84;5075012;28;20208;-76
2023/08/04 00:12:21;;;;;;;7.33;5.60;;;;;;;15.95;100.00;99541.47;5074928;28;20204;-76
2023/08/04 00:14:48;;;;;;;9.47;5.93;;;;;;;15.80;100.00;99539.72;5074828;28;20199;-76
2023/08/04 00:17:15;;;;;;;9.93;5.83;;;;;;;15.88;100.00;99545.41;5074621;28;20212;-75
2023/08/04 00:19:42;;;;;;;9.70;6.57;;;;;;;15.87;100.00;99554.22;5074530;28;20676;-76
2023/08/04 00:22:10;;;;;;;8.37;6.13;;;;;;;15.82;100.00;99551.84;5074789;28;20232;-76
2023/08/04 00:24:36;;;;;;;8.80;6.03;;;;;;;15.83;100.00;99561.41;5074563;28;20701;-76
2023/08/04 00:27:03;;;;;;;7.30;5.57;;;;;;;15.83;100.00;99560.59;5074511;28;20210;-76
2023/08/04 00:29:30;;;;;;;6.80;5.10;;;;;;;15.83;100.00;99566.69;5074473;28;20207;-76
2023/08/04 00:31:56;;;;;;;10.53;5.63;;;;;;;15.85;100.00;99574.50;5074261;28;20708;-75
2023/08/04 00:34:23;;;;;;;11.03;5.47;;;;;;;15.78;100.00;99570.53;5074711;28;20205;-75
2023/08/04 00:36:49;;;;;;;9.00;5.40;;;;;;;15.76;100.00;99572.41;5074567;28;20199;-76
2023/08/04 00:39:18;;;;;;;7.73;6.20;;;;;;;15.71;100.00;99579.63;5074434;28;20207;-75
2023/08/04 00:41:44;;;;;;;10.07;5.57;;;;;;;15.67;100.00;99592.94;5074087;28;20251;-76
2023/08/04 00:44:11;;;;;;;8.77;5.47;;;;;;;15.52;100.00;99582.41;5074635;28;20210;-76
2023/08/04 00:46:38;;;;;;;5.87;4.83;;;;;;;15.42;100.00;99595.19;5073875;28;20234;-75
2023/08/04 00:49:07;;;;;;;8.97;5.57;;;;;;;15.40;100.00;99595.28;5074626;28;20219;-75
2023/08/04 00:51:34;;;;;;;6.43;5.57;;;;;;;15.37;100.00;99598.06;5074357;28;20227;-75
2023/08/04 00:54:02;;;;;;;12.80;5.80;;;;;;;15.34;100.00;99598.25;5074110;28;20215;-75
2023/08/04 00:56:31;;;;;;;8.73;4.80;;;;;;;15.27;100.00;99608.19;5073247;28;20206;-75
2023/08/04 00:58:58;;;;;;;7.03;4.90;;;;;;;15.26;100.00;99598.63;5073887;28;20624;-75
2023/08/04 01:01:25;;;;;;;4.60;4.13;;;;;;;15.28;100.00;99602.03;5073821;28;20712;-75
2023/08/04 01:03:52;;;;;;;5.83;4.57;;;;;;;15.29;100.00;99605.50;5073842;28;20206;-75
2023/08/04 01:06:26;;;;;;;8.80;4.80;;;;;;;15.36;100.00;99606.03;5073825;28;20222;-75
2023/08/04 01:09:02;;;;;;;7.73;5.43;;;;;;;15.26;100.00;99605.66;5073975;28;20213;-76
2023/08/04 01:11:34;;;;;;;10.20;5.37;;;;;;;15.22;100.00;99610.25;5073679;28;20227;-75
2023/08/04 01:14:03;;;;;;;10.97;4.90;;;;;;;15.24;100.00;99608.38;5073898;28;20207;-75
2023/08/04 01:16:32;;;;;;;7.57;5.07;;;;;;;15.18;100.00;99605.19;5073670;28;20211;-76
2023/08/04 01:18:59;;;;;;;7.50;4.80;;;;;;;15.21;100.00;99603.25;5073643;28;20201;-75
2023/08/04 01:21:27;;;;;;;7.53;5.27;;;;;;;15.12;100.00;99603.72;5073817;28;20233;-75
2023/08/04 01:23:54;;;;;;;5.10;4.33;;;;;;;15.13;100.00;99617.75;5073453;28;20203;-75
2023/08/04 01:26:22;;;;;;;9.93;5.00;;;;;;;15.12;100.00;99616.03;5073618;28;20233;-76
2023/08/04 01:28:50;;;;;;;10.37;4.93;;;;;;;15.23;100.00;99621.59;5073399;28;20214;-76
2023/08/04 01:31:17;;;;;;;6.17;5.27;;;;;;;15.26;100.00;99624.06;5073375;28;20233;-76
2023/08/04 01:33:44;;;;;;;5.70;5.27;;;;;;;15.27;100.00;99631.88;5073433;28;20209;-75
2023/08/04 01:36:10;;;;;;;6.17;5.60;;;;;;;15.46;100.00;99628.28;5073777;28;20197;-76
2023/08/04 01:38:38;;;;;;;6.70;4.57;;;;;;;15.58;100.00;99640.81;5072921;28;20206;-75
2023/08/04 01:41:07;;;;;;;7.23;4.90;;;;;;;15.70;100.00;99655.09;5073426;28;20572;-76
2023/08/04 01:43:33;;;;;;;8.00;5.50;;;;;;;15.70;100.00;99660.38;5073284;28;20306;-76
2023/08/04 01:46:00;;;;;;;10.60;5.33;;;;;;;15.79;100.00;99680.94;5073293;28;20232;-75
2023/08/04 01:48:27;;;;;;;8.60;5.47;;;;;;;15.62;100.00;99684.44;5073018;28;20207;-75
2023/08/04 01:50:54;;;;;;;6.43;5.30;;;;;;;15.60;100.00;99688.06;5072782;28;20728;-76
2023/08/04 01:53:21;;;;;;;8.50;5.00;;;;;;;15.60;100.00;99685.44;5072890;28;20217;-75
2023/08/04 01:55:49;;;;;;;9.60;5.10;;;;;;;15.56;100.00;99684.75;5073125;28;20204;-75
2023/08/04 01:58:15;;;;;;;6.23;5.00;;;;;;;15.58;100.00;99690.78;5072702;28;20257;-75
2023/08/04 02:00:42;;;;;;;5.97;4.57;;;;;;;15.70;100.00;99694.56;5072953;28;20265;-76
2023/08/04 02:03:08;;;;;;;8.23;4.80;;;;;;;15.83;100.00;99707.94;5072643;28;20494;-76
2023/08/04 02:05:35;;;;;;;5.93;4.73;;;;;;;15.94;100.00;99717.94;5072449;28;20235;-75
2023/08/04 02:08:01;;;;;;;5.53;5.03;;;;;;;15.98;100.00;99719.47;5072638;28;20211;-73
2023/08/04 02:10:28;;;;;;;6.40;4.73;;;;;;;15.98;100.00;99730.00;5072652;28;20237;-76
2023/08/04 02:12:55;;;;;;;11.37;5.40;;;;;;;16.00;100.00;99728.13;5072585;28;20202;-76
2023/08/04 02:15:22;;;;;;;12.20;5.37;;;;;;;15.66;100.00;99733.34;5072564;28;20211;-76
2023/08/04 02:17:48;;;;;;;11.03;6.13;;;;;;;15.62;100.00;99713.38;5072459;28;20260;-75
2023/08/04 02:20:15;;;;;;;6.13;5.33;;;;;;;15.59;100.00;99710.88;5072538;28;20241;-75
2023/08/04 02:22:41;;;;;;;9.83;5.70;;;;;;;15.61;100.00;99705.56;5072257;28;20218;-75
2023/08/04 02:25:08;;;;;;;7.93;5.37;;;;;;;15.67;100.00;99713.13;5072177;28;20209;-76
2023/08/04 02:27:35;;;;;;;5.57;4.87;;;;;;;15.78;100.00;99712.63;5072368;28;20203;-76
2023/08/04 02:30:03;;;;;;;8.03;5.30;;;;;;;15.78;100.00;99728.41;5072724;28;20215;-75
2023/08/04 02:32:30;;;;;;;8.97;5.07;;;;;;;15.85;100.00;99737.69;5072587;28;20266;-75
2023/08/04 02:34:57;;;;;;;11.70;4.80;;;;;;;15.74;100.00;99747.91;5071782;28;20215;-76
2023/08/04 02:37:23;;;;;;;7.70;5.50;;;;;;;15.79;100.00;99756.41;5072264;28;20698;-76
2023/08/04 02:39:49;;;;;;;7.47;5.63;;;;;;;15.46;100.00;99749.25;5072487;28;20206;-75
2023/08/04 02:42:16;;;;;;;8.60;5.00;;;;;;;15.41;100.00;99736.34;5072451;28;20208;-75
2023/08/04 02:44:42;;;;;;;7.70;4.70;;;;;;;15.47;100.00;99735.19;5071868;28;20210;-75
2023/08/04 02:47:10;;;;;;;8.07;4.57;;;;;;;15.41;100.00;99725.84;5072070;28;20457;-76
2023/08/04 02:49:37;;;;;;;7.37;5.40;;;;;;;15.24;100.00;99721.44;5071930;28;20214;-76
2023/08/04 02:52:04;;;;;;;9.90;6.20;;;;;;;15.13;100.00;99704.50;5071616;28;20595;-76
2023/08/04 02:54:31;;;;;;;9.37;6.07;;;;;;;14.95;100.00;99704.47;5071900;28;20202;-75
2023/08/04 02:56:57;;;;;;;7.93;6.03;;;;;;;14.92;100.00;99685.38;5071634;28;20219;-75
2023/08/04 02:59:24;;;;;;;9.00;6.10;;;;;;;14.96;100.00;99684.28;5071936;28;20210;-76
2023/08/04 03:01:50;;;;;;;6.93;5.70;;;;;;;14.92;100.00;99686.22;5071549;28;20732;-76
2023/08/04 03:04:18;;;;;;;6.00;5.50;;;;;;;14.89;100.00;99675.88;5072062;28;20574;-75
2023/08/04 03:06:44;;;;;;;7.17;6.40;;;;;;;14.87;100.00;99680.34;5071383;28;20237;-76
2023/08/04 03:09:11;;;;;;;6.83;6.10;;;;;;;14.90;100.00;99685.44;5072088;28;20206;-75
2023/08/04 03:11:37;;;;;;;10.33;5.90;;;;;;;14.90;100.00;99688.06;5071711;28;20233;-76
2023/08/04 03:14:04;;;;;;;6.87;5.93;;;;;;;15.01;100.00;99692.81;5071872;28;20201;-75
2023/08/04 03:16:30;;;;;;;6.43;5.77;;;;;;;15.09;100.00;99703.78;5071412;28;20214;-75
2023/08/04 03:18:57;;;;;;;9.40;5.17;;;;;;;15.23;100.00;99717.09;5071177;28;20207;-75
2023/08/04 03:21:25;;;;;;;7.53;5.10;;;;;;;15.13;100.00;99723.75;5071428;28;20261;-76
2023/08/04 03:23:51;;;;;;;8.10;5.73;;;;;;;15.26;100.00;99737.13;5071579;28;20679;-75
2023/08/04 03:26:18;;;;;;;7.87;5.03;;;;;;;15.41;100.00;99738.13;5071448;28;20732;-76
2023/08/04 03:28:44;;;;;;;4.70;4.30;;;;;;;15.54;100.00;99746.25;5071796;28;20211;-76
2023/08/04 03:31:11;;;;;;;8.30;5.00;;;;;;;15.61;100.00;99759.00;5071084;28;20227;-74
2023/08/04 03:33:37;;;;;;;6.57;5.10;;;;;;;15.71;100.00;99775.19;5071659;28;20213;-76
2023/08/04 03:36:04;;;;;;;4.80;4.33;;;;;;;15.76;100.00;99793.44;5071683;28;20198;-76
2023/08/04 03:38:32;;;;;;;6.03;5.03;;;;;;;15.86;100.00;99807.81;5071456;28;20203;-75
2023/08/04 03:40:58;;;;;;;8.07;4.70;;;;;;;15.94;100.00;99816.16;5071605;28;20224;-76
2023/08/04 03:43:25;;;;;;;5.43;4.60;;;;;;;15.96;100.00;99832.72;5071153;28;20218;-75
2023/08/04 03:45:51;;;;;;;5.07;3.93;;;;;;;16.02;100.00;99834.22;5071498;28;20216;-75
2023/08/04 03:48:17;;;;;;;6.87;4.07;;;;;;;16.06;100.00;99848.91;5071474;28;20207;-75
2023/08/04 03:50:44;;;;;;;8.87;4.10;;;;;;;16.08;100.00;99850.53;5071212;28;20248;-75
2023/08/04 03:53:11;;;;;;;6.33;4.20;;;;;;;16.09;100.00;99867.16;5071467;28;20208;-76
2023/08/04 03:55:39;;;;;;;5.40;4.00;;;;;;;16.13;100.00;99873.13;5071232;28;20576;-76
2023/08/04 03:58:05;;;;;;;6.03;3.97;;;;;;;16.14;100.00;99880.97;5071169;28;20203;-76
2023/08/04 04:00:32;;;;;;;6.97;3.80;;;;;;;16.19;100.00;99894.72;5071212;28;20596;-75
2023/08/04 04:02:58;;;;;;;6.60;4.03;;;;;;;16.20;100.00;99899.09;5071587;28;20204;-75
2023/08/04 04:05:24;;;;;;;6.53;3.63;;;;;;;16.14;100.00;99911.72;5071294;28;20211;-76
2023/08/04 04:07:51;;;;;;;6.03;3.50;;;;;;;15.96;100.00;99913.50;5071072;28;20227;-76
2023/08/04 04:10:18;;;;;;;5.37;3.73;;;;;;;16.02;100.00;99911.41;5071605;28;20236;-75
2023/08/04 04:12:45;;;;;;;6.03;4.20;;;;;;;15.94;100.00;99905.66;5071278;28;20214;-75
2023/08/04 04:15:13;;;;;;;5.83;4.50;;;;;;;16.02;100.00;99897.38;5071311;28;20238;-75
2023/08/04 04:17:39;;;;;;;8.93;3.97;;;;;;;16.10;100.00;99897.00;5071073;28;20208;-76
2023/08/04 04:20:07;;;;;;;10.17;4.70;;;;;;;15.96;100.00;99901.19;5071146;28;20203;-76
2023/08/04 04:22:34;;;;;;;7.00;4.10;;;;;;;15.98;100.00;99882.69;5071325;28;20224;-76
2023/08/04 04:25:01;;;;;;;7.17;5.03;;;;;;;16.03;100.00;99889.38;5070987;28;20238;-76
2023/08/04 04:27:27;;;;;;;8.87;4.87;;;;;;;15.88;100.00;99877.03;5071361;28;20593;-75
2023/08/04 04:29:55;;;;;;;6.27;4.70;;;;;;;15.75;100.00;99858.34;5071300;28;20214;-75
2023/08/04 04:32:21;;;;;;;6.40;4.00;;;;;;;15.73;100.00;99841.78;5073656;28;20679;-75
2023/08/04 04:34:48;;;;;;;8.37;4.67;;;;;;;15.85;100.00;99849.06;5073634;28;20218;-75
2023/08/04 04:37:14;;;;;;;9.17;4.63;;;;;;;15.92;100.00;99846.13;5073826;28;20664;-75
2023/08/04 04:39:41;;;;;;;6.33;4.67;;;;;;;16.00;100.00;99852.72;5074159;28;20215;-75
2023/08/04 04:42:08;;;;;;;5.37;4.17;;;;;;;16.02;100.00;99863.16;5074281;28;20597;-75
2023/08/04 04:44:34;;;;;;;5.17;4.07;;;;;;;16.07;100.00;99866.41;5074655;28;20211;-75
2023/08/04 04:47:04;;;;;;;7.17;4.20;;;;;;;16.13;100.00;99873.13;5074096;28;20224;-75
2023/08/04 04:49:30;;;;;;;5.23;4.70;;;;;;;16.16;100.00;99876.47;5074180;28;20696;-75
2023/08/04 04:51:56;;;;;;;6.00;4.30;;;;;;;16.16;100.00;99876.47;5074239;28;20235;-75
2023/08/04 04:54:23;;;;;;;7.47;4.10;;;;;;;16.21;100.00;99887.63;5074436;28;20295;-75
2023/08/04 04:56:49;;;;;;;4.57;4.03;;;;;;;16.26;100.00;99890.03;5074158;28;20209;-75
2023/08/04 04:59:16;;;;;;;6.60;4.00;;;;;;;16.24;100.00;99897.16;5074186;28;20283;-76
2023/08/04 05:01:42;;;;;;;4.60;4.20;;;;;;;16.27;100.00;99897.84;5073721;28;20710;-75
2023/08/04 05:04:10;;;;;;;6.13;4.57;;;;;;;16.02;100.00;99903.50;5073987;28;20211;-75
2023/08/04 05:06:37;;;;;;;6.80;4.80;;;;;;;16.03;100.00;99878.84;5074036;28;20220;-75
2023/08/04 05:09:04;;;;;;;10.87;4.50;;;;;;;15.88;100.00;99856.81;5073708;28;20208;-75
2023/08/04 05:11:30;;;;;;;6.23;4.60;;;;;;;15.86;100.00;99856.03;5073982;28;20319;-75
2023/08/04 05:13:57;;;;;;;15.70;4.80;;;;;;;15.74;100.00;99846.13;5074161;28;20618;-75
2023/08/04 05:16:24;;;;;;;7.03;4.80;;;;;;;15.88;100.00;99838.38;5073549;28;20678;-75
2023/08/04 05:18:50;;;;;;;10.27;4.60;;;;;;;16.04;100.00;99845.50;5073766;28;20215;-75
2023/08/04 05:21:18;;;;;;;6.00;4.67;;;;;;;16.16;100.00;99867.72;5073629;28;20224;-75
2023/08/04 05:23:45;;;;;;;7.57;4.27;;;;;;;16.26;100.00;99861.06;5073816;28;20208;-75
2023/08/04 05:26:11;;;;;;;8.13;4.03;;;;;;;16.33;100.00;99882.66;5073820;28;20211;-75
2023/08/04 05:28:38;;;;;;;9.70;4.30;;;;;;;16.33;100.00;99885.28;5073628;28;20204;-75
2023/08/04 05:31:05;;;;;;;6.63;4.30;;;;;;;16.36;100.00;99898.31;5073398;28;20314;-75
2023/08/04 05:33:33;;;;;;;8.60;4.77;;;;;;;16.04;100.00;99893.75;5073432;28;20209;-75
2023/08/04 05:36:00;;;;;;;6.93;4.87;;;;;;;16.01;100.00;99882.50;5073371;28;20203;-75
2023/08/04 05:38:28;;;;;;;8.80;4.80;;;;;;;16.01;100.00;99878.09;5073368;28;20197;-75
2023/08/04 05:40:55;;;;;;;8.70;5.80;;;;;;;15.87;100.00;99876.16;5073296;28;20277;-75
2023/08/04 05:43:23;;;;;;;7.77;5.03;;;;;;;15.94;100.00;99866.19;5072665;28;20704;-75
2023/08/04 05:45:50;;;;;;;7.83;4.63;;;;;;;15.87;100.00;99872.66;5073227;28;20236;-75
2023/08/04 05:48:16;;;;;;;6.33;5.10;;;;;;;15.92;100.00;99875.09;5073731;28;20228;-75
2023/08/04 05:50:43;;;;;;;5.73;4.73;;;;;;;15.83;100.00;99871.97;5072817;28;20237;-75
2023/08/04 05:53:10;;;;;;;7.63;4.73;;;;;;;15.97;100.00;99870.44;5073258;28;20207;-75
2023/08/04 05:55:38;;;;;;;6.97;4.33;;;;;;;15.88;100.00;99877.03;5073382;28;20205;-75
2023/08/04 05:58:05;;;;;;;5.47;4.53;;;;;;;15.81;100.00;99886.13;5072922;28;20207;-75
2023/08/04 06:00:32;;;;;;;5.17;4.60;;;;;;;15.99;100.00;99881.72;5072936;28;20254;-75
2023/08/04 06:02:58;;;;;;;6.67;4.50;;;;;;;15.92;100.00;99878.56;5072923;28;20205;-75
2023/08/04 06:05:25;;;;;;;9.43;4.67;;;;;;;15.95;100.00;99880.19;5072977;28;20207;-75
2023/08/04 06:07:52;;;;;;;6.87;4.73;;;;;;;15.88;100.00;99891.03;5073025;28;20224;-75
2023/08/04 06:10:19;;;;;;;10.67;4.77;;;;;;;15.95;100.00;99882.81;5072996;28;20233;-75
2023/08/04 06:12:47;;;;;;;6.07;4.60;;;;;;;15.90;100.00;99893.59;5073010;28;20273;-75
2023/08/04 06:15:14;;;;;;;6.33;4.67;;;;;;;16.05;100.00;99897.22;5072824;28;20302;-75
2023/08/04 06:17:41;;;;;;;5.93;4.60;;;;;;;16.04;100.00;99906.06;5072716;28;20211;-75
2023/08/04 06:20:08;;;;;;;5.00;4.43;;;;;;;15.96;100.00;99916.13;5072602;28;20700;-75
2023/08/04 06:22:36;;;;;;;4.93;4.40;;;;;;;16.00;100.00;99912.41;5072678;28;20211;-75
2023/08/04 06:25:03;;;;;;;6.23;4.33;;;;;;;16.01;100.00;99904.41;5072358;28;20197;-74
2023/08/04 06:27:29;;;;;;;8.80;4.40;;;;;;;16.13;100.00;99904.72;5072292;28;20310;-75
2023/08/04 06:29:58;;;;;;;7.63;4.80;;;;;;;16.23;100.00;99914.75;5072609;28;20208;-75
2023/08/04 06:32:25;;;;;;;5.17;4.27;;;;;;;16.19;100.00;99936.88;5072713;28;20208;-75
2023/08/04 06:34:52;;;;;;;6.03;3.63;;;;;;;16.23;100.00;99941.06;5071878;28;20212;-75
2023/08/04 06:37:18;;;;;;;8.17;4.40;;;;;;;16.12;100.00;99958.34;5072346;28;20210;-75
2023/08/04 06:39:45;;;;;;;6.77;4.13;;;;;;;16.05;100.00;99957.78;5072240;28;20223;-75
2023/08/04 06:42:11;;;;;;;6.27;4.53;;;;;;;15.98;100.00;99965.13;5072210;28;20234;-75
2023/08/04 06:44:38;;;;;;;4.30;3.97;;;;;;;16.05;100.00;99945.47;5072157;28;20203;-75
2023/08/04 06:47:06;;;;;;;10.17;4.30;;;;;;;16.01;100.00;99935.16;5072056;28;20241;-75
2023/08/04 06:49:34;;;;;;;5.50;3.63;;;;;;;16.12;100.00;99948.66;5072141;28;20219;-76
2023/08/04 06:52:01;;;;;;;4.67;3.80;;;;;;;15.98;100.00;99965.13;5071951;28;20590;-75
2023/08/04 06:54:27;;;;;;;6.27;4.53;;;;;;;16.00;100.00;99978.22;5071142;28;20681;-75
2023/08/04 06:56:54;;;;;;;8.07;3.97;;;;;;;16.05;100.00;99957.78;5072008;28;20259;-75
2023/08/04 06:59:20;;;;;;;4.20;3.87;;;;;;;16.21;100.00;99964.00;5071730;28;20214;-75
2023/08/04 07:01:47;;;;;;;5.37;3.80;;;;;;;16.20;100.00;99980.72;5072232;28;20226;-75
2023/08/04 07:04:14;;;;;;;5.03;3.70;;;;;;;16.33;100.00;99988.84;5072230;28;20206;-75
2023/08/04 07:06:41;;;;;;;9.63;3.90;;;;;;;15.99;100.00;99998.41;5071330;28;20211;-74
2023/08/04 07:09:07;;;;;;;7.70;3.57;;;;;;;16.17;100.00;99977.38;5071938;28;20669;-74
2023/08/04 07:11:34;;;;;;;4.80;4.30;;;;;;;16.37;100.00;99977.25;5071760;28;20611;-75
2023/08/04 07:14:00;;;;;;;5.07;3.67;;;;;;;16.41;100.00;100006.91;5071510;28;20211;-75
2023/08/04 07:16:27;;;;;;;7.37;3.73;;;;;;;16.29;100.00;100024.16;5071281;28;20729;-75
2023/08/04 07:18:53;;;;;;;4.80;3.90;;;;;;;16.47;100.00;100036.44;5071831;28;20633;-75
2023/08/04 07:21:21;;;;;;;4.73;3.70;;;;;;;16.43;100.00;100063.88;5071856;28;20592;-75
2023/08/04 07:23:48;;;;;;;4.73;4.20;;;;;;;16.56;100.00;100074.66;5071731;28;20207;-75
2023/08/04 07:26:14;;;;;;;5.90;3.57;;;;;;;16.63;100.00;100097.16;5071620;28;20210;-74
2023/08/04 07:28:40;;;;;;;5.27;3.13;;;;;;;16.73;100.00;100094.91;5071279;28;20228;-76
2023/08/04 07:31:08;;;;;;;5.03;3.30;;;;;;;16.57;100.00;100107.13;5071804;28;20228;-75
2023/08/04 07:33:35;;;;;;;6.67;4.50;;;;;;;16.40;100.00;100081.63;5071828;28;20211;-76
2023/08/04 07:36:02;;;;;;;4.10;3.57;;;;;;;16.31;100.00;100072.34;5071642;28;20201;-76
2023/08/04 07:38:31;;;;;;;4.13;3.70;;;;;;;16.27;100.00;100074.31;5071808;28;20203;-76
2023/08/04 07:40:58;;;;;;;5.20;3.43;;;;;;;16.31;100.00;100069.72;5071392;28;20237;-75
2023/08/04 07:43:25;;;;;;;6.43;3.37;;;;;;;16.33;100.00;100074.94;4371032;28;10000831;-76
2023/08/04 07:45:53;;;;;;;4.80;3.37;;;;;;;16.52;100.00;100086.28;5069139;28;20583;-75
2023/08/04 07:48:20;;;;;;;5.00;3.10;;;;;;;16.47;100.00;100096.16;5068683;28;20320;-76
2023/08/04 07:50:48;;;;;;;4.53;3.63;;;;;;;16.45;100.00;100116.47;5068511;28;20240;-75
2023/08/04 07:53:14;;;;;;;7.90;3.63;;;;;;;16.39;100.00;100108.88;5068520;28;20239;-75
2023/08/04 07:55:42;;;;;;;3.60;3.10;;;;;;;16.65;100.00;100111.09;5068696;28;20223;-76
2023/08/04 07:58:09;;;;;;;6.73;3.57;;;;;;;16.82;100.00;100120.81;5068546;28;20216;-75
2023/08/04 08:00:36;;;;;;;3.90;3.33;;;;;;;16.73;100.00;100142.34;5068339;28;20710;-76
2023/08/04 08:03:02;;;;;;;3.37;3.03;;;;;;;16.75;100.00;100164.22;5068912;28;20211;-75
2023/08/04 08:05:29;;;;;;;6.83;3.50;;;;;;;16.77;100.00;100165.00;5069785;28;20604;-75
2023/08/04 08:07:56;;;;;;;4.73;3.30;;;;;;;16.88;100.00;100180.31;5072083;28;20222;-76
2023/08/04 08:10:22;;;;;;;3.50;2.87;;;;;;;16.94;100.00;100195.81;5072327;28;20228;-76
2023/08/04 08:12:50;;;;;;;3.47;2.63;;;;;;;17.04;100.00;100185.66;5072222;28;20208;-76
2023/08/04 08:15:16;;;;;;;4.07;2.77;;;;;;;17.01;99.08;100214.84;5072144;28;20209;-75
2023/08/04 08:17:43;;;;;;;4.73;3.33;;;;;;;16.82;99.03;100231.53;5071753;28;20204;-76
2023/08/04 08:20:10;;;;;;;5.70;3.20;;;;;;;17.09;99.68;100217.09;5072187;28;20212;-76
2023/08/04 08:22:36;;;;;;;4.77;3.17;;;;;;;17.06;98.99;100234.75;5071838;28;20211;-75
2023/08/04 08:25:03;;;;;;;3.60;2.70;;;;;;;17.20;98.31;100222.69;5071911;28;20689;-75
2023/08/04 08:27:29;;;;;;;3.33;2.50;;;;;;;17.22;95.62;100273.56;5071726;28;20706;-76
2023/08/04 08:29:57;;;;;;;3.83;3.07;;;;;;;17.27;95.02;100280.34;5071750;28;20209;-75
2023/08/04 08:32:24;;;;;;;5.57;2.50;;;;;;;17.34;94.69;100304.63;5071590;28;20212;-76
2023/08/04 08:34:50;;;;;;;4.97;3.07;;;;;;;17.54;95.00;100302.78;5071506;28;20210;-75
2023/08/04 08:37:17;;;;;;;3.40;2.40;;;;;;;17.64;93.74;100323.38;5071401;28;20690;-76
2023/08/04 08:39:43;;;;;;;3.90;2.30;;;;;;;17.62;91.58;100362.19;5071705;28;20609;-75
2023/08/04 08:42:10;;;;;;;3.93;2.40;;;;;;;17.79;92.15;100366.63;5071194;28;20221;-75
2023/08/04 08:44:36;;;;;;;4.00;1.90;;;;;;;17.71;90.02;100397.00;5071286;28;20687;-75
2023/08/04 08:47:04;;;;;;;3.27;1.80;;;;;;;17.75;90.88;100407.31;5071378;28;20208;-75
2023/08/04 08:49:38;;;;;;;2.97;2.10;;;;;;;17.46;90.16;100416.63;5071582;28;20233;-75
2023/08/04 08:52:09;;;;;;;4.83;2.30;;;;;;;17.60;92.25;100379.91;5071543;28;20748;-75
2023/08/04 08:54:36;;;;;;;2.67;1.90;;;;;;;17.80;91.67;100371.00;5071332;28;20251;-76
2023/08/04 08:57:03;;;;;;;2.63;1.83;;;;;;;17.80;88.15;100426.44;5071003;28;20255;-76
2023/08/04 08:59:31;;;;;;;4.23;2.10;;;;;;;17.55;88.70;100454.97;5071389;28;20226;-76
2023/08/04 09:01:58;;;;;;;2.50;2.00;;;;;;;17.75;89.94;100431.06;5071402;28;20240;-75
2023/08/04 09:04:26;;;;;;;2.20;1.80;;;;;;;17.94;89.29;100425.78;5071145;28;20212;-75
2023/08/04 09:06:56;;;;;;;1.80;1.50;;;;;;;17.76;85.48;100497.94;5071768;28;20209;-75
2023/08/04 09:09:22;;;;;;;2.33;1.70;;;;;;;18.00;86.02;100496.78;5071208;28;20225;-75
2023/08/04 09:11:49;;;;;;;2.13;1.77;;;;;;;17.86;83.26;100546.78;5070844;28;20232;-75
2023/08/04 09:14:16;;;;;;;2.00;1.47;;;;;;;17.99;83.31;100555.81;5071531;28;20208;-75
2023/08/04 09:16:43;;;;;;;1.33;1.23;;;;;;;18.18;82.85;100566.38;5069993;28;20204;-75
2023/08/04 09:19:10;;;;;;;2.23;1.27;;;;;;;18.25;81.84;100596.88;5070872;28;20238;-75
2023/08/04 09:21:38;;;;;;;2.10;1.47;;;;;;;18.21;82.67;100597.06;5071122;28;20229;-75
2023/08/04 09:24:09;;;;;;;1.87;1.30;;;;;;;18.19;84.05;100559.28;5070700;28;20216;-75
2023/08/04 09:26:41;;;;;;;3.57;2.10;;;;;;;18.18;83.27;100563.72;5070359;28;20712;-74
2023/08/04 09:29:08;;;;;;;4.17;1.60;;;;;;;18.16;83.87;100557.66;5070380;28;20267;-74
2023/08/04 09:31:36;;;;;;;4.03;1.63;;;;;;;18.29;83.69;100544.69;5070571;28;20275;-75
2023/08/04 09:34:05;;;;;;;2.80;2.17;;;;;;;18.38;83.75;100557.47;5071034;28;20202;-74
2023/08/04 09:36:31;;;;;;;2.40;1.77;;;;;;;18.34;81.11;100592.91;5070491;28;20213;-75
2023/08/04 09:39:05;;;;;;;3.80;2.13;;;;;;;18.45;80.26;100614.38;5069929;28;20205;-76
2023/08/04 09:41:34;;;;;;;4.37;1.73;;;;;;;18.33;77.99;100667.81;5070357;28;20232;-76
2023/08/04 09:44:05;;;;;;;3.40;1.53;;;;;;;18.50;78.84;100661.72;5069981;28;20240;-76
2023/08/04 09:46:32;;;;;;;1.57;1.43;;;;;;;18.33;77.73;100691.59;5069362;28;20209;-76
2023/08/04 09:48:59;;;;;;;3.10;1.73;;;;;;;18.38;78.72;100673.75;5069847;28;20234;-73
2023/08/04 09:51:26;;;;;;;1.77;1.27;;;;;;;18.19;79.39;100665.81;5070434;28;20287;-76
2023/08/04 09:53:54;;;;;;;2.53;1.80;;;;;;;18.23;81.55;100600.47;5069786;28;20220;-76
2023/08/04 09:56:26;;;;;;;3.87;1.50;;;;;;;18.34;82.22;100571.75;5069466;28;20205;-76
2023/08/04 09:58:52;;;;;;;1.30;1.17;;;;;;;18.30;82.20;100553.50;5069951;28;20588;-75
2023/08/04 10:01:19;;;;;;;3.73;1.60;;;;;;;18.41;81.40;100574.94;5069885;28;20240;-75
2023/08/04 10:03:51;;;;;;;2.20;1.40;;;;;;;18.51;82.96;100536.53;5070563;28;20205;-76
2023/08/04 10:06:18;;;;;;;2.03;1.60;;;;;;;18.40;81.98;100560.88;5068440;28;20256;-76
2023/08/04 10:08:45;;;;;;;3.73;1.60;;;;;;;18.43;81.44;100570.44;5069493;28;20582;-76
2023/08/04 10:11:12;;;;;;;2.90;1.53;;;;;;;18.50;82.24;100549.84;5069329;28;20784;-76
2023/08/04 10:13:42;;;;;;;2.33;1.73;;;;;;;18.48;82.41;100557.84;5069951;28;20224;-75
2023/08/04 10:16:11;;;;;;;2.50;1.73;;;;;;;18.62;82.56;100543.94;5069900;28;20188;-76
2023/08/04 10:18:50;;;;;;;2.87;1.60;;;;;;;18.66;82.60;100538.41;5069666;28;20209;-76
2023/08/04 10:21:18;;;;;;;3.63;2.07;;;;;;;18.51;81.79;100549.75;5069237;28;20236;-76
2023/08/04 10:23:45;;;;;;;1.93;1.47;;;;;;;18.46;81.69;100546.50;5069673;28;20287;-74
2023/08/04 10:26:12;;;;;;;2.77;1.60;;;;;;;18.60;82.51;100528.16;5069454;28;20213;-75
2023/08/04 10:29:02;;;;;;;4.50;2.07;;;;;;;18.64;82.48;100534.16;5068470;28;20278;-75
2023/08/04 10:31:48;;;;;;;3.47;2.03;;;;;;;18.80;82.92;100518.38;5069438;28;20248;-76
2023/08/04 10:34:25;;;;;;;2.93;1.80;;;;;;;18.61;79.26;100587.16;5069484;28;20215;-76
2023/08/04 10:36:59;;;;;;;1.93;1.33;;;;;;;18.65;79.36;100610.75;5068506;28;20273;-75
2023/08/04 10:39:27;;;;;;;3.07;1.70;;;;;;;18.72;79.36;100621.88;5069627;28;20203;-76
2023/08/04 10:41:53;;;;;;;3.50;1.60;;;;;;;18.66;78.70;100646.81;5069137;28;20233;-74
2023/08/04 10:44:21;;;;;;;2.07;1.67;;;;;;;18.94;80.51;100605.81;5069063;28;20205;-76
2023/08/04 10:46:48;;;;;;;2.57;1.60;;;;;;;19.22;80.11;100596.44;5068951;28;20200;-76
2023/08/04 10:49:15;;;;;;;3.17;1.60;;;;;;;19.32;79.74;100618.81;5068823;28;20229;-76
2023/08/04 10:51:41;;;;;;;2.67;1.50;;;;;;;19.37;78.97;100622.09;5069314;28;20761;-75
2023/08/04 10:54:08;;;;;;;2.43;1.70;;;;;;;19.40;78.52;100642.25;5069296;28;20208;-76
2023/08/04 10:56:37;;;;;;;2.17;1.50;;;;;;;19.42;78.35;100638.63;5068828;28;20603;-76
2023/08/04 10:59:08;;;;;;;2.80;1.87;;;;;;;19.29;75.91;100697.56;5069042;28;20213;-76
2023/08/04 11:01:36;;;;;;;2.13;1.17;;;;;;;19.21;75.74;100722.63;5069206;28;20252;-76
2023/08/04 11:04:02;;;;;;;1.43;1.33;;;;;;;19.28;76.68;100723.16;5069308;28;20220;-75
2023/08/04 11:06:29;;;;;;;4.77;1.37;;;;;;;19.12;76.92;100709.84;5068630;28;20209;-75
2023/08/04 11:08:56;;;;;;;2.60;1.13;;;;;;;18.96;76.58;100709.75;5067215;28;20232;-75
2023/08/04 11:11:23;;;;;;;2.80;1.70;;;;;;;19.17;77.69;100681.38;5068020;28;20229;-75
2023/08/04 11:13:50;;;;;;;1.80;1.57;;;;;;;19.34;78.89;100642.56;5068794;28;20216;-75
2023/08/04 11:16:17;;;;;;;2.70;1.73;;;;;;;19.26;78.96;100624.44;5068823;28;20303;-75
2023/08/04 11:18:45;;;;;;;2.70;1.40;;;;;;;19.35;78.15;100604.59;5068103;28;20500;-75
2023/08/04 11:21:15;;;;;;;3.97;1.57;;;;;;;19.59;78.73;100626.25;5068165;28;20718;-75
2023/08/04 11:23:41;;;;;;;3.50;1.83;;;;;;;19.57;77.38;100659.91;5068936;28;20305;-75